createdAt,value
2019-04-04T00:00:29.396Z,23.57
2019-04-04T00:02:58.398Z,24.47
2019-04-04T00:05:34.070Z,22.35
2019-04-04T00:08:03.029Z,22.45
2019-04-04T00:10:32.909Z,21.10
2019-04-04T00:13:11.180Z,18.62
2019-04-04T00:15:40.645Z,16.95
2019-04-04T00:18:09.706Z,15.65
2019-04-04T00:20:45.237Z,16.25
2019-04-04T00:23:14.186Z,16.30
2019-04-04T00:25:56.338Z,16.55
2019-04-04T00:28:32.085Z,15.93
2019-04-04T00:31:14.896Z,15.50
2019-04-04T00:33:44.037Z,15.28
2019-04-04T00:36:13.318Z,16.70
2019-04-04T00:38:49.126Z,16.57
2019-04-04T00:41:24.108Z,17.80
2019-04-04T00:44:00.892Z,18.17
2019-04-04T00:46:30.993Z,19.67
2019-04-04T00:49:00.532Z,18.57
2019-04-04T00:51:38.808Z,19.90
2019-04-04T00:54:07.067Z,22.90
2019-04-04T00:56:36.027Z,22.20
2019-04-04T00:59:12.172Z,23.00
2019-04-04T01:01:41.173Z,22.95
2019-04-04T01:04:10.272Z,22.82
2019-04-04T01:06:46.318Z,21.82
2019-04-04T01:09:15.312Z,22.80
2019-04-04T01:11:44.374Z,22.70
2019-04-04T01:14:20.624Z,20.05
2019-04-04T01:16:49.577Z,21.33
2019-04-04T01:19:18.547Z,16.87
2019-04-04T01:21:55.012Z,16.32
2019-04-04T01:24:23.973Z,13.58
2019-04-04T01:26:59.318Z,11.33
2019-04-04T01:29:42.113Z,10.68
2019-04-04T01:32:17.634Z,8.78
2019-04-04T01:34:53.898Z,9.43
2019-04-04T01:37:22.963Z,9.70
2019-04-04T01:39:51.954Z,9.33
2019-04-04T01:42:27.615Z,9.43
2019-04-04T01:44:56.659Z,8.20
2019-04-04T01:47:25.662Z,9.53
2019-04-04T01:50:01.316Z,10.03
2019-04-04T01:52:30.346Z,9.60
2019-04-04T01:55:02.920Z,8.03
2019-04-04T01:57:38.922Z,8.20
2019-04-04T02:00:10.051Z,7.90
2019-04-04T02:02:39.030Z,7.35
2019-04-04T02:05:16.195Z,7.62
2019-04-04T02:07:45.159Z,7.72
2019-04-04T02:10:14.818Z,7.42
2019-04-04T02:12:51.027Z,7.75
2019-04-04T02:15:20.029Z,7.55
2019-04-04T02:17:49.073Z,7.55
2019-04-04T02:20:24.989Z,7.60
2019-04-04T02:22:55.144Z,7.05
2019-04-04T02:25:24.114Z,7.50
2019-04-04T02:28:00.304Z,6.87
2019-04-04T02:30:35.845Z,6.92
2019-04-04T02:33:11.879Z,6.80
2019-04-04T02:35:47.508Z,7.55
2019-04-04T02:38:27.188Z,6.47
2019-04-04T02:40:54.038Z,6.92
2019-04-04T02:43:27.392Z,7.35
2019-04-04T02:46:00.898Z,7.08
2019-04-04T02:48:29.939Z,6.65
2019-04-04T02:50:58.893Z,6.40
2019-04-04T02:53:34.466Z,6.80
2019-04-04T02:56:03.734Z,6.60
2019-04-04T02:58:32.906Z,7.03
2019-04-04T03:01:09.326Z,7.20
2019-04-04T03:03:41.069Z,7.20
2019-04-04T03:06:09.019Z,6.58
2019-04-04T03:08:45.306Z,6.30
2019-04-04T03:11:14.290Z,6.60
2019-04-04T03:13:43.385Z,6.20
2019-04-04T03:16:21.521Z,6.62
2019-04-04T03:18:50.083Z,5.75
2019-04-04T03:21:22.188Z,4.97
2019-04-04T03:23:56.964Z,5.75
2019-04-04T03:26:25.918Z,6.30
2019-04-04T03:29:10.637Z,5.72
2019-04-04T03:31:46.638Z,4.72
2019-04-04T03:34:22.284Z,5.17
2019-04-04T03:36:57.653Z,5.20
2019-04-04T03:39:33.620Z,4.58
2019-04-04T03:42:07.110Z,4.40
2019-04-04T03:44:33.284Z,4.50
2019-04-04T03:47:10.437Z,4.35
2019-04-04T03:49:39.774Z,4.35
2019-04-04T03:52:11.190Z,4.80
2019-04-04T03:54:46.649Z,3.52
2019-04-04T03:57:15.728Z,3.92
2019-04-04T03:59:44.729Z,3.90
2019-04-04T04:02:20.699Z,4.03
2019-04-04T04:07:52.984Z,4.40
2019-04-04T04:10:22.035Z,3.50
2019-04-04T04:12:50.987Z,4.20
2019-04-04T04:15:29.585Z,3.95
2019-04-04T04:17:57.707Z,3.90
2019-04-04T04:20:26.792Z,4.03
2019-04-04T04:23:02.799Z,3.90
2019-04-04T04:25:35.229Z,3.95
2019-04-04T04:28:03.117Z,3.75
2019-04-04T04:30:40.556Z,4.33
2019-04-04T04:33:09.568Z,4.10
2019-04-04T04:35:42.080Z,4.67
2019-04-04T04:38:25.882Z,4.25
2019-04-04T04:40:53.809Z,4.33
2019-04-04T04:43:22.776Z,4.92
2019-04-04T04:45:58.656Z,4.60
2019-04-04T04:48:30.730Z,4.30
2019-04-04T04:50:58.708Z,4.40
2019-04-04T04:53:34.622Z,4.28
2019-04-04T04:56:03.607Z,4.97
2019-04-04T04:58:32.595Z,4.87
2019-04-04T05:01:08.614Z,5.28
2019-04-04T05:03:37.605Z,5.53
2019-04-04T05:06:19.686Z,5.72
2019-04-04T05:08:55.975Z,6.08
2019-04-04T05:11:31.180Z,6.37
2019-04-04T05:14:00.140Z,6.12
2019-04-04T05:16:29.374Z,6.12
2019-04-04T05:19:04.663Z,5.87
2019-04-04T05:21:34.597Z,6.45
2019-04-04T05:24:03.682Z,6.75
2019-04-04T05:26:39.300Z,6.25
2019-04-04T05:29:08.287Z,6.12
2019-04-04T05:31:37.284Z,6.85
2019-04-04T05:34:13.149Z,6.58
2019-04-04T05:36:42.227Z,6.92
2019-04-04T05:39:24.321Z,7.20
2019-04-04T05:41:53.303Z,6.90
2019-04-04T05:44:22.286Z,6.55
2019-04-04T05:46:59.026Z,6.50
2019-04-04T05:49:28.030Z,7.75
2019-04-04T05:51:57.007Z,6.95
2019-04-04T05:54:33.551Z,6.78
2019-04-04T05:57:03.423Z,7.50
2019-04-04T05:59:33.351Z,8.40
2019-04-04T06:02:11.535Z,7.80
2019-04-04T06:04:40.359Z,8.15
2019-04-04T06:07:22.811Z,8.05
2019-04-04T06:09:58.360Z,7.28
2019-04-04T06:12:37.370Z,7.75
2019-04-04T06:15:07.101Z,8.10
2019-04-04T06:17:38.737Z,8.18
2019-04-04T06:20:15.641Z,8.28
2019-04-04T06:22:44.832Z,9.30
2019-04-04T06:25:13.786Z,8.90
2019-04-04T06:27:49.846Z,8.40
2019-04-04T06:30:20.143Z,8.28
2019-04-04T06:32:49.401Z,9.73
2019-04-04T06:35:24.560Z,10.20
2019-04-04T06:37:53.541Z,9.83
2019-04-04T06:40:36.115Z,9.90
2019-04-04T06:43:10.608Z,10.23
2019-04-04T06:45:35.777Z,10.10
2019-04-04T06:48:11.802Z,9.93
2019-04-04T06:50:43.004Z,10.58
2019-04-04T06:53:11.405Z,11.68
2019-04-04T06:55:47.202Z,11.75
2019-04-04T06:58:17.197Z,12.88
2019-04-04T07:00:49.876Z,14.53
2019-04-04T07:03:27.075Z,14.20
2019-04-04T07:05:54.771Z,14.45
2019-04-04T07:08:38.152Z,15.38
2019-04-04T07:11:21.238Z,15.58
2019-04-04T07:13:52.829Z,15.03
2019-04-04T07:16:21.818Z,16.23
2019-04-04T07:18:50.807Z,14.83
2019-04-04T07:21:26.963Z,15.70
2019-04-04T07:23:59.488Z,15.90
2019-04-04T07:26:28.689Z,17.05
2019-04-04T07:29:07.079Z,17.95
2019-04-04T07:31:38.356Z,17.00
2019-04-04T07:34:07.620Z,17.70
2019-04-04T07:36:43.797Z,18.52
2019-04-04T07:39:12.850Z,18.23
2019-04-04T07:41:44.717Z,18.10
2019-04-04T07:44:21.148Z,18.70
2019-04-04T07:46:50.245Z,17.77
2019-04-04T07:49:19.208Z,19.20
2019-04-04T07:51:55.882Z,18.37
2019-04-04T07:54:24.839Z,19.45
2019-04-04T07:56:53.825Z,20.12
2019-04-04T07:59:31.197Z,19.12
2019-04-04T08:02:00.380Z,20.20
2019-04-04T08:04:46.623Z,20.37
2019-04-04T08:07:15.601Z,19.17
2019-04-04T08:09:50.778Z,20.75
2019-04-04T08:12:33.968Z,21.23
2019-04-04T08:15:02.936Z,21.00
2019-04-04T08:17:31.926Z,20.68
2019-04-04T08:20:08.582Z,20.62
2019-04-04T08:22:39.683Z,21.77
2019-04-04T08:25:08.216Z,21.95
2019-04-04T08:27:44.278Z,21.60
2019-04-04T08:30:13.380Z,20.00
2019-04-04T08:32:42.059Z,22.58
2019-04-04T08:35:17.838Z,22.30
2019-04-04T08:37:46.866Z,22.40
2019-04-04T08:40:17.117Z,24.20
2019-04-04T08:42:53.678Z,23.20
2019-04-04T08:45:22.645Z,24.18
2019-04-04T08:47:51.648Z,24.12
2019-04-04T08:50:27.506Z,22.98
2019-04-04T08:52:56.177Z,24.18
2019-04-04T08:55:24.797Z,24.67
2019-04-04T08:58:01.717Z,24.65
2019-04-04T09:00:30.336Z,23.75
2019-04-04T09:02:59.073Z,24.85
2019-04-04T09:05:34.328Z,23.12
2019-04-04T09:08:02.948Z,24.07
2019-04-04T09:10:38.437Z,24.82
2019-04-04T09:13:20.129Z,25.35
2019-04-04T09:15:48.778Z,26.87
2019-04-04T09:18:17.700Z,25.17
2019-04-04T09:20:52.644Z,27.40
2019-04-04T09:23:21.668Z,27.22
2019-04-04T09:25:50.732Z,28.15
2019-04-04T09:28:26.870Z,24.82
2019-04-04T09:30:55.575Z,26.70
2019-04-04T09:33:24.193Z,28.45
2019-04-04T09:35:59.706Z,28.90
2019-04-04T09:38:29.243Z,28.60
2019-04-04T09:40:58.064Z,28.50
2019-04-04T09:43:33.746Z,28.55
2019-04-04T09:46:02.852Z,29.10
2019-04-04T09:48:31.818Z,30.55
2019-04-04T09:51:08.942Z,30.65
2019-04-04T09:53:52.369Z,32.67
2019-04-04T09:56:07.850Z,31.27
2019-04-04T09:58:43.250Z,32.00
2019-04-04T10:01:11.865Z,31.73
2019-04-04T10:03:40.514Z,29.63
2019-04-04T10:06:16.110Z,31.48
2019-04-04T10:08:45.531Z,28.30
2019-04-04T10:11:28.494Z,27.75
2019-04-04T10:14:04.317Z,28.10
2019-04-04T10:16:40.573Z,27.42
2019-04-04T10:19:09.183Z,31.62
2019-04-04T10:21:37.804Z,29.98
2019-04-04T10:24:13.701Z,30.05
2019-04-04T10:26:42.362Z,30.85
2019-04-04T10:29:10.991Z,31.35
2019-04-04T10:31:46.955Z,31.75
2019-04-04T10:34:15.598Z,32.17
2019-04-04T10:36:44.334Z,32.38
2019-04-04T10:39:28.807Z,30.08
2019-04-04T10:41:50.542Z,30.90
2019-04-04T10:44:19.165Z,32.20
2019-04-04T10:46:54.207Z,33.48
2019-04-04T10:49:22.846Z,29.30
2019-04-04T10:51:51.486Z,33.48
2019-04-04T10:54:26.949Z,34.65
2019-04-04T10:56:55.566Z,30.77
2019-04-04T10:59:24.254Z,32.95
2019-04-04T11:02:00.988Z,34.75
2019-04-04T11:04:29.783Z,35.03
2019-04-04T11:06:58.389Z,35.25
2019-04-04T11:09:41.972Z,33.20
2019-04-04T11:12:11.196Z,34.25
2019-04-04T11:14:53.637Z,33.83
2019-04-04T11:17:22.289Z,36.53
2019-04-04T11:19:50.921Z,34.15
2019-04-04T11:22:26.426Z,31.05
2019-04-04T11:24:55.076Z,32.53
2019-04-04T11:27:23.698Z,34.67
2019-04-04T11:29:58.917Z,34.30
2019-04-04T11:32:27.733Z,34.73
2019-04-04T11:34:56.468Z,35.95
2019-04-04T11:37:33.022Z,36.68
2019-04-04T11:40:01.655Z,36.83
2019-04-04T11:42:30.268Z,36.85
2019-04-04T11:45:06.362Z,33.15
2019-04-04T11:47:34.987Z,31.02
2019-04-04T11:50:04.724Z,33.15
2019-04-04T11:52:40.666Z,34.73
2019-04-04T11:55:09.609Z,31.33
2019-04-04T11:57:38.213Z,32.67
2019-04-04T12:00:14.105Z,34.70
2019-04-04T12:02:42.796Z,33.65
2019-04-04T12:05:11.404Z,33.10
2019-04-04T12:07:49.858Z,33.25
2019-04-04T12:10:18.464Z,32.75
2019-04-04T12:13:00.645Z,34.63
2019-04-04T12:15:36.349Z,33.30
2019-04-04T12:18:11.772Z,33.67
2019-04-04T12:20:43.177Z,32.90
2019-04-04T12:23:10.976Z,32.65
2019-04-04T12:25:46.698Z,35.03
2019-04-04T12:28:15.318Z,33.00
2019-04-04T12:30:44.108Z,33.05
2019-04-04T12:33:19.205Z,33.83
2019-04-04T12:35:47.823Z,34.38
2019-04-04T12:38:16.781Z,34.50
2019-04-04T12:40:52.211Z,32.75
2019-04-04T12:43:20.833Z,32.55
2019-04-04T12:45:49.470Z,32.42
2019-04-04T12:48:24.780Z,30.82
2019-04-04T12:50:53.431Z,33.88
2019-04-04T12:53:22.518Z,32.42
2019-04-04T12:55:58.554Z,31.50
2019-04-04T12:58:27.213Z,33.63
2019-04-04T13:00:55.837Z,32.83
2019-04-04T13:03:31.273Z,33.55
2019-04-04T13:05:59.926Z,32.00
2019-04-04T13:08:30.611Z,34.80
2019-04-04T13:11:05.336Z,34.33
2019-04-04T13:13:40.662Z,32.98
2019-04-04T13:16:22.314Z,34.27
2019-04-04T13:18:51.522Z,34.63
2019-04-04T13:21:21.525Z,33.53
2019-04-04T13:23:57.600Z,33.23
2019-04-04T13:26:26.257Z,34.30
2019-04-04T13:28:54.904Z,35.08
2019-04-04T13:31:30.213Z,33.35
2019-04-04T13:33:58.858Z,33.73
2019-04-04T13:36:27.517Z,34.55
2019-04-04T13:39:03.298Z,33.67
2019-04-04T13:41:31.908Z,32.80
2019-04-04T13:44:01.233Z,33.40
2019-04-04T13:46:36.558Z,32.67
2019-04-04T13:49:05.298Z,33.18
2019-04-04T13:51:34.033Z,31.17
2019-04-04T13:54:09.545Z,32.25
2019-04-04T13:56:38.158Z,31.65
2019-04-04T13:59:06.801Z,33.83
2019-04-04T14:01:43.118Z,32.40
2019-04-04T14:04:11.817Z,30.23
2019-04-04T14:06:40.471Z,32.08
2019-04-04T14:09:16.113Z,32.35
2019-04-04T14:11:44.758Z,32.60
2019-04-04T14:14:27.110Z,32.95
2019-04-04T14:17:02.508Z,30.92
2019-04-04T14:19:38.136Z,31.30
2019-04-04T14:22:06.854Z,32.35
2019-04-04T14:24:35.573Z,32.13
2019-04-04T14:27:11.586Z,32.70
2019-04-04T14:29:40.540Z,32.38
2019-04-04T14:32:09.287Z,32.25
2019-04-04T14:34:44.429Z,32.15
2019-04-04T14:37:13.075Z,31.95
2019-04-04T14:39:41.716Z,32.17
2019-04-04T14:42:17.766Z,32.65
2019-04-04T14:44:46.388Z,32.03
2019-04-04T14:47:16.263Z,30.85
2019-04-04T14:49:51.530Z,29.85
2019-04-04T14:52:20.644Z,32.08
2019-04-04T14:54:49.397Z,31.80
2019-04-04T14:57:24.300Z,32.25
2019-04-04T14:59:52.921Z,31.57
2019-04-04T15:02:21.886Z,30.25
2019-04-04T15:04:57.252Z,30.95
2019-04-04T15:07:25.868Z,30.57
2019-04-04T15:09:54.506Z,29.82
2019-04-04T15:12:29.698Z,30.88
2019-04-04T15:15:05.035Z,29.85
2019-04-04T15:17:46.460Z,31.30
2019-04-04T15:20:15.104Z,30.10
2019-04-04T15:22:43.708Z,31.10
2019-04-04T15:25:18.696Z,31.05
2019-04-04T15:27:47.398Z,31.40
2019-04-04T15:30:16.070Z,31.07
2019-04-04T15:32:51.185Z,30.30
2019-04-04T15:35:19.797Z,30.92
2019-04-04T15:37:48.417Z,30.48
2019-04-04T15:40:23.774Z,32.23
2019-04-04T15:42:52.392Z,29.82
2019-04-04T15:45:21.050Z,30.88
2019-04-04T15:47:56.939Z,29.60
2019-04-04T15:50:25.544Z,30.52
2019-04-04T15:52:54.157Z,31.33
2019-04-04T15:55:29.954Z,30.72
2019-04-04T15:57:58.596Z,30.92
2019-04-04T16:00:27.255Z,30.45
2019-04-04T16:03:02.538Z,31.68
2019-04-04T16:05:31.180Z,31.52
2019-04-04T16:07:59.835Z,31.10
2019-04-04T16:10:34.885Z,30.27
2019-04-04T16:13:03.501Z,30.45
2019-04-04T16:15:45.387Z,30.30
2019-04-04T16:18:21.363Z,32.67
2019-04-04T16:20:56.437Z,31.85
2019-04-04T16:23:25.092Z,32.75
2019-04-04T16:25:53.734Z,32.73
2019-04-04T16:28:29.212Z,32.78
2019-04-04T16:30:57.859Z,29.67
2019-04-04T16:33:26.654Z,31.68
2019-04-04T16:36:05.211Z,31.55
2019-04-04T16:38:32.658Z,33.65
2019-04-04T16:41:01.306Z,35.25
2019-04-04T16:43:37.171Z,31.15
2019-04-04T16:46:05.794Z,32.35
2019-04-04T16:48:34.435Z,32.53
2019-04-04T16:51:10.098Z,30.88
2019-04-04T16:53:38.709Z,33.02
2019-04-04T16:56:07.361Z,31.90
2019-04-04T16:58:43.001Z,31.42
2019-04-04T17:01:11.636Z,32.67
2019-04-04T17:03:40.405Z,32.48
2019-04-04T17:06:16.448Z,32.25
2019-04-04T17:08:45.121Z,33.30
2019-04-04T17:11:14.169Z,34.48
2019-04-04T17:13:51.151Z,31.27
2019-04-04T17:16:28.407Z,32.38
2019-04-04T17:19:10.768Z,31.87
2019-04-04T17:21:39.749Z,33.98
2019-04-04T17:24:08.712Z,33.33
2019-04-04T17:26:44.222Z,34.58
2019-04-04T17:29:13.251Z,34.33
2019-04-04T17:31:42.300Z,34.27
2019-04-04T17:34:18.580Z,34.23
2019-04-04T17:36:47.911Z,34.30
2019-04-04T17:39:16.978Z,34.38
2019-04-04T17:41:53.311Z,34.83
2019-04-04T17:44:22.826Z,34.75
2019-04-04T17:46:51.869Z,35.70
2019-04-04T17:49:28.272Z,36.88
2019-04-04T17:51:57.335Z,38.02
2019-04-04T17:54:26.809Z,39.85
2019-04-04T17:57:02.914Z,38.55
2019-04-04T17:59:31.896Z,39.90
2019-04-04T18:02:00.897Z,40.00
2019-04-04T18:04:47.765Z,42.13
2019-04-04T18:07:07.393Z,41.53
2019-04-04T18:09:36.378Z,41.50
2019-04-04T18:12:12.053Z,41.53
2019-04-04T18:14:41.012Z,43.98
2019-04-04T18:17:23.599Z,43.70
2019-04-04T18:19:59.137Z,42.55
2019-04-04T18:22:35.166Z,46.00
2019-04-04T18:25:04.859Z,44.42
2019-04-04T18:27:34.135Z,43.73
2019-04-04T18:30:10.002Z,44.42
2019-04-04T18:32:38.987Z,45.92
2019-04-04T18:35:09.282Z,47.27
2019-04-04T18:37:45.365Z,50.10
2019-04-04T18:40:14.555Z,49.15
2019-04-04T18:42:53.304Z,53.48
2019-04-04T18:45:21.039Z,52.58
2019-04-04T18:47:50.029Z,50.50
2019-04-04T18:50:18.987Z,52.75
2019-04-04T18:52:54.774Z,56.10
2019-04-04T18:55:23.762Z,52.65
2019-04-04T18:57:52.728Z,54.20
2019-04-04T19:00:28.215Z,53.45
2019-04-04T19:02:57.301Z,53.80
2019-04-04T19:05:26.254Z,54.33
2019-04-04T19:08:02.885Z,52.25
2019-04-04T19:10:31.918Z,53.52
2019-04-04T19:13:05.474Z,50.70
2019-04-04T19:15:38.568Z,53.90
2019-04-04T19:18:14.125Z,56.42
2019-04-04T19:20:56.400Z,53.08
2019-04-04T19:23:25.408Z,53.87
2019-04-04T19:25:54.450Z,50.23
2019-04-04T19:28:30.174Z,56.37
2019-04-04T19:30:59.142Z,58.60
2019-04-04T19:33:28.101Z,54.65
2019-04-04T19:36:04.649Z,55.52
2019-04-04T19:38:33.636Z,56.80
2019-04-04T19:41:02.621Z,59.15
2019-04-04T19:43:38.650Z,54.50
2019-04-04T19:46:07.697Z,56.75
2019-04-04T19:48:36.678Z,55.28
2019-04-04T19:51:12.833Z,55.70
2019-04-04T19:53:41.815Z,56.02
2019-04-04T19:56:10.806Z,58.28
2019-04-04T19:58:47.117Z,56.95
2019-04-04T20:01:16.104Z,59.27
2019-04-04T20:03:45.156Z,56.85
2019-04-04T20:06:21.084Z,54.23
2019-04-04T20:08:53.420Z,55.90
2019-04-04T20:11:20.650Z,57.33
2019-04-04T20:13:56.918Z,55.38
2019-04-04T20:16:25.902Z,50.50
2019-04-04T20:19:08.137Z,56.65
2019-04-04T20:21:37.144Z,54.95
2019-04-04T20:24:12.364Z,53.80
2019-04-04T20:26:48.445Z,54.75
2019-04-04T20:29:17.432Z,53.20
2019-04-04T20:31:46.396Z,53.98
2019-04-04T20:34:22.852Z,55.20
2019-04-04T20:36:51.839Z,53.42
2019-04-04T20:39:20.818Z,54.50
2019-04-04T20:41:56.770Z,57.15
2019-04-04T20:44:25.758Z,55.20
2019-04-04T20:46:54.708Z,54.13
2019-04-04T20:49:30.867Z,52.83
2019-04-04T20:51:59.932Z,54.35
2019-04-04T20:54:28.911Z,53.85
2019-04-04T20:57:05.089Z,53.68
2019-04-04T20:59:34.063Z,54.55
2019-04-04T21:02:03.049Z,55.95
2019-04-04T21:04:39.566Z,55.73
2019-04-04T21:07:08.649Z,53.65
2019-04-04T21:09:37.750Z,53.92
2019-04-04T21:12:14.238Z,55.48
2019-04-04T21:14:43.198Z,54.73
2019-04-04T21:17:12.187Z,57.95
2019-04-04T21:19:47.397Z,54.75
2019-04-04T21:22:27.830Z,54.48
2019-04-04T21:25:00.939Z,54.20
2019-04-04T21:27:36.865Z,55.30
2019-04-04T21:30:16.526Z,57.05
2019-04-04T21:32:45.526Z,52.58
2019-04-04T21:35:14.677Z,52.48
2019-04-04T21:37:50.111Z,56.73
2019-04-04T21:40:19.093Z,54.05
2019-04-04T21:42:48.055Z,54.70
2019-04-04T21:45:24.070Z,57.58
2019-04-04T21:47:53.035Z,55.43
2019-04-04T21:50:22.018Z,53.75
2019-04-04T21:52:58.469Z,52.75
2019-04-04T21:55:27.437Z,51.73
2019-04-04T21:57:56.397Z,56.50
2019-04-04T22:00:34.761Z,56.37
2019-04-04T22:03:03.947Z,53.90
2019-04-04T22:05:33.173Z,56.30
2019-04-04T22:08:09.010Z,56.48
2019-04-04T22:10:38.014Z,54.95
2019-04-04T22:13:06.973Z,56.53
2019-04-04T22:15:42.491Z,55.58
2019-04-04T22:18:11.582Z,58.33
2019-04-04T22:20:54.002Z,55.30
2019-04-04T22:23:29.813Z,57.58
2019-04-04T22:25:58.863Z,57.17
2019-04-04T22:28:43.340Z,55.20
2019-04-04T22:31:12.339Z,54.00
2019-04-04T22:33:41.339Z,55.25
2019-04-04T22:36:17.701Z,55.30
2019-04-04T22:38:46.665Z,54.65
2019-04-04T22:41:15.657Z,53.60
2019-04-04T22:44:02.675Z,54.42
2019-04-04T22:46:21.418Z,55.88
2019-04-04T22:48:50.414Z,56.80
2019-04-04T22:51:26.170Z,53.55
2019-04-04T22:53:55.253Z,54.05
2019-04-04T22:56:24.260Z,54.42
2019-04-04T22:59:00.406Z,55.00
2019-04-04T23:01:29.402Z,54.42
2019-04-04T23:03:58.477Z,54.13
2019-04-04T23:06:34.160Z,52.98
2019-04-04T23:09:03.456Z,54.38
2019-04-04T23:11:32.431Z,51.75
2019-04-04T23:14:08.960Z,49.83
2019-04-04T23:16:37.926Z,54.03
2019-04-04T23:19:06.889Z,54.90
2019-04-04T23:21:42.649Z,53.92
2019-04-04T23:24:18.390Z,51.63
2019-04-04T23:26:54.577Z,52.70
2019-04-04T23:29:23.567Z,53.05
2019-04-04T23:32:05.564Z,53.20
2019-04-04T23:34:34.528Z,54.58
2019-04-04T23:37:03.582Z,53.70
2019-04-04T23:39:40.150Z,55.15
2019-04-04T23:42:09.114Z,50.48
2019-04-04T23:44:38.070Z,52.67
2019-04-04T23:47:14.163Z,52.20
2019-04-04T23:49:43.258Z,54.63
2019-04-04T23:52:12.226Z,55.83
2019-04-04T23:54:48.643Z,56.37
2019-04-04T23:57:17.626Z,54.38
2019-04-04T23:59:46.589Z,52.62
